Time;durP1;ratioP1;P1;durP2;ratioP2;P2;SDS_P1;SDS_P2;PMS_P1;PMS_P2;Temp;Humidity;BMP_temperature;BMP_pressure;BME280_temperature;BME280_humidity;BME280_pressure;Samples;Min_cycle;Max_cycle;Signal;HPM_P1;HPM_P2
2022/04/16 00:02:29;;;;;;;12.20;10.25;;;8.10;99.90;;;;;;5112176;28;20051;-77
2022/04/16 00:05:20;;;;;;;12.52;9.80;;;8.10;99.90;;;;;;5132321;28;20051;-77
2022/04/16 00:08:06;;;;;;;11.40;10.20;;;8.00;99.90;;;;;;5114898;28;20050;-77
2022/04/16 00:10:51;;;;;;;14.07;11.10;;;7.90;99.90;;;;;;5118962;28;20188;-77
2022/04/16 00:14:12;;;;;;;14.63;10.75;;;7.90;99.90;;;;;;5100077;28;20061;-77
2022/04/16 00:16:49;;;;;;;14.60;11.18;;;7.80;99.90;;;;;;5130655;28;20051;-77
2022/04/16 00:19:19;;;;;;;13.10;11.25;;;7.80;99.90;;;;;;5133140;28;20043;-77
2022/04/16 00:21:58;;;;;;;14.82;11.32;;;7.80;99.90;;;;;;5116682;28;20062;-77
2022/04/16 00:24:43;;;;;;;15.35;11.93;;;7.80;99.90;;;;;;5100145;27;20046;-77
2022/04/16 00:27:17;;;;;;;14.23;11.98;;;7.80;99.90;;;;;;5104813;27;20050;-77
2022/04/16 00:29:59;;;;;;;16.98;13.00;;;7.80;99.90;;;;;;5106014;27;20062;-77
2022/04/16 00:32:28;;;;;;;15.75;13.38;;;7.90;99.90;;;;;;5115957;27;20463;-77
2022/04/16 00:35:01;;;;;;;16.13;13.02;;;7.80;99.90;;;;;;5100742;27;20138;-77
2022/04/16 00:37:27;;;;;;;16.23;13.60;;;7.80;99.90;;;;;;5070018;27;20083;-77
2022/04/16 00:40:03;;;;;;;16.92;13.70;;;7.80;99.90;;;;;;5086316;27;20122;-77
2022/04/16 00:42:39;;;;;;;17.88;14.10;;;7.90;99.90;;;;;;5086970;27;20047;-77
2022/04/16 00:45:11;;;;;;;18.35;13.88;;;7.80;99.90;;;;;;5100885;27;20066;-77
2022/04/16 00:47:47;;;;;;;16.83;13.73;;;7.80;99.90;;;;;;5118906;27;20043;-77
2022/04/16 00:50:22;;;;;;;17.65;14.38;;;7.70;99.90;;;;;;5137329;27;20050;-77
2022/04/16 00:52:56;;;;;;;18.60;13.80;;;7.70;99.90;;;;;;5115717;27;20466;-76
2022/04/16 00:55:45;;;;;;;18.23;14.52;;;7.70;99.90;;;;;;5107974;27;20487;-77
2022/04/16 00:58:40;;;;;;;18.42;14.63;;;7.60;99.90;;;;;;5121021;27;20045;-77
2022/04/16 01:01:18;;;;;;;17.90;14.85;;;7.60;99.90;;;;;;5070236;27;20535;-77
2022/04/16 01:03:53;;;;;;;17.70;14.43;;;7.60;99.90;;;;;;5101541;27;20043;-76
2022/04/16 01:06:48;;;;;;;16.85;14.20;;;7.50;99.90;;;;;;5116919;27;20514;-77
2022/04/16 01:09:24;;;;;;;16.67;14.07;;;7.50;99.90;;;;;;5101691;27;20050;-77
2022/04/16 01:12:02;;;;;;;17.98;13.82;;;7.50;99.90;;;;;;5119039;27;20054;-77
2022/04/16 01:14:38;;;;;;;18.92;14.65;;;7.40;99.90;;;;;;5101344;27;20502;-77
2022/04/16 01:17:07;;;;;;;17.98;14.70;;;7.40;99.90;;;;;;5101725;27;20047;-77
2022/04/16 01:19:43;;;;;;;17.73;15.15;;;7.40;99.90;;;;;;5118961;27;20122;-77
2022/04/16 01:22:34;;;;;;;17.38;14.80;;;7.30;99.90;;;;;;5089210;27;20043;-77
2022/04/16 01:25:22;;;;;;;17.35;14.00;;;7.20;99.90;;;;;;5121312;27;20502;-77
2022/04/16 01:27:52;;;;;;;17.25;14.43;;;7.30;99.90;;;;;;5101351;27;20047;-77
2022/04/16 01:30:23;;;;;;;18.05;14.57;;;7.20;99.90;;;;;;5135211;27;20415;-77
2022/04/16 01:32:52;;;;;;;19.92;14.50;;;7.20;99.90;;;;;;5135745;27;20070;-77
2022/04/16 01:35:23;;;;;;;16.23;14.48;;;7.10;99.90;;;;;;5136050;27;20039;-76
2022/04/16 01:37:59;;;;;;;18.17;15.27;;;7.00;99.90;;;;;;5099429;27;20415;-76
2022/04/16 01:40:33;;;;;;;21.65;16.13;;;7.10;99.90;;;;;;5119876;27;20085;-77
2022/04/16 01:43:19;;;;;;;18.85;15.18;;;7.10;99.90;;;;;;5135662;27;20127;-77
2022/04/16 01:46:06;;;;;;;17.70;14.27;;;7.10;99.90;;;;;;5105501;27;20049;-76
2022/04/16 01:48:53;;;;;;;16.23;14.25;;;7.10;99.90;;;;;;5105972;27;20060;-77
2022/04/16 01:51:39;;;;;;;19.92;14.63;;;7.00;99.90;;;;;;5106612;27;20395;-77
2022/04/16 01:54:22;;;;;;;17.52;14.25;;;7.00;99.90;;;;;;5132228;27;20111;-77
2022/04/16 01:56:59;;;;;;;20.08;15.32;;;6.90;99.90;;;;;;5135223;27;20054;-77
2022/04/16 01:59:53;;;;;;;16.55;13.55;;;6.90;99.90;;;;;;5018220;28;20057;-77
2022/04/16 02:02:24;;;;;;;18.35;14.57;;;6.80;99.90;;;;;;5112221;27;20055;-78
2022/04/16 02:04:59;;;;;;;19.80;14.30;;;6.80;99.90;;;;;;5117647;27;20534;-77
2022/04/16 02:07:33;;;;;;;17.40;13.88;;;6.80;99.90;;;;;;5117130;27;20046;-77
2022/04/16 02:10:00;;;;;;;16.95;13.73;;;6.80;99.90;;;;;;5084264;27;20492;-76
2022/04/16 02:12:37;;;;;;;16.20;13.73;;;6.70;99.90;;;;;;5072602;27;20406;-76
2022/04/16 02:15:11;;;;;;;16.23;14.43;;;6.60;99.90;;;;;;5101633;27;20043;-77
2022/04/16 02:17:42;;;;;;;17.02;13.70;;;6.60;99.90;;;;;;5100463;27;20039;-76
2022/04/16 02:20:11;;;;;;;16.98;13.80;;;6.60;99.90;;;;;;5113642;27;20088;-77
2022/04/16 02:23:02;;;;;;;16.83;13.20;;;6.60;99.90;;;;;;5119610;27;20050;-77
2022/04/16 02:25:33;;;;;;;16.08;13.38;;;6.60;99.90;;;;;;5099331;27;20107;-77
2022/04/16 02:28:02;;;;;;;20.13;16.02;;;6.50;99.90;;;;;;5133450;27;20091;-78
2022/04/16 02:30:32;;;;;;;18.40;15.60;;;6.50;99.90;;;;;;5116939;27;20486;-77
2022/04/16 02:33:21;;;;;;;22.90;16.05;;;6.50;99.90;;;;;;5100632;27;20452;-77
2022/04/16 02:36:00;;;;;;;20.00;16.00;;;6.50;99.90;;;;;;5117425;27;20051;-77
2022/04/16 02:38:52;;;;;;;20.60;15.52;;;6.50;99.90;;;;;;5134140;27;20497;-77
2022/04/16 02:41:26;;;;;;;21.83;16.48;;;6.50;99.90;;;;;;5126852;27;20058;-77
2022/04/16 02:47:16;;;;;;;20.55;17.55;;;6.50;99.90;;;;;;5070621;28;20052;-76
2022/04/16 02:49:51;;;;;;;20.00;16.90;;;6.50;99.90;;;;;;5037465;28;20068;-77
2022/04/16 02:52:37;;;;;;;21.23;17.17;;;6.50;99.90;;;;;;5055047;28;20095;-77
2022/04/16 02:55:10;;;;;;;21.20;17.08;;;6.50;99.90;;;;;;5023436;28;20061;-77
2022/04/16 02:57:58;;;;;;;20.52;17.13;;;6.50;99.90;;;;;;5056228;28;20043;-77
2022/04/16 03:00:31;;;;;;;22.90;17.77;;;6.60;99.90;;;;;;5037097;28;20063;-76
2022/04/16 03:03:10;;;;;;;23.20;17.15;;;6.50;99.90;;;;;;5004486;28;20090;-76
2022/04/16 03:06:05;;;;;;;22.40;17.95;;;6.50;99.90;;;;;;5038989;28;20470;-76
2022/04/16 03:08:43;;;;;;;21.88;17.13;;;6.50;99.90;;;;;;5055356;28;20048;-76
2022/04/16 03:11:26;;;;;;;23.13;18.00;;;6.50;99.90;;;;;;4990486;28;20054;-76
2022/04/16 03:13:54;;;;;;;22.55;18.02;;;6.50;99.90;;;;;;4950273;29;20055;-81
2022/04/16 03:20:14;;;;;;;21.40;18.08;;;6.60;99.90;;;;;;4895473;29;20135;-76
2022/04/16 03:22:54;;;;;;;24.92;18.33;;;6.50;99.90;;;;;;4879705;29;20061;-76
2022/04/16 03:25:27;;;;;;;26.73;19.45;;;6.60;99.90;;;;;;4895510;29;20059;-76
2022/04/16 03:28:13;;;;;;;26.83;19.80;;;6.70;99.90;;;;;;4880942;29;20060;-76
2022/04/16 03:30:41;;;;;;;24.63;19.35;;;6.80;99.90;;;;;;4879925;29;20147;-76
2022/04/16 03:33:11;;;;;;;25.75;19.52;;;6.80;99.90;;;;;;4894415;29;20109;-76
2022/04/16 03:35:51;;;;;;;25.30;19.15;;;6.80;99.90;;;;;;4880507;29;20063;-76
2022/04/16 03:38:21;;;;;;;23.58;19.88;;;7.00;99.90;;;;;;4895065;29;20564;-76
2022/04/16 03:40:50;;;;;;;24.95;19.60;;;7.00;99.90;;;;;;4879773;29;20056;-79
2022/04/16 03:43:26;;;;;;;26.70;20.38;;;7.10;99.90;;;;;;4879163;29;20588;-79
2022/04/16 03:45:52;;;;;;;26.08;20.15;;;7.10;99.90;;;;;;4901750;29;20461;-79
2022/04/16 03:48:20;;;;;;;26.02;21.00;;;7.20;99.90;;;;;;4924418;28;20495;-80
2022/04/16 03:50:48;;;;;;;25.35;20.58;;;7.30;99.90;;;;;;5071849;28;20547;-77
2022/04/16 03:53:17;;;;;;;26.27;21.15;;;7.30;99.90;;;;;;5092349;27;20437;-77
2022/04/16 04:02:04;;;;;;;26.55;21.02;;;7.40;99.90;;;;;;5002307;28;20049;-79
2022/04/16 04:04:36;;;;;;;27.00;21.83;;;7.50;99.90;;;;;;5030118;28;20680;-78
2022/04/16 04:07:21;;;;;;;25.58;21.35;;;7.60;99.90;;;;;;5087990;28;20111;-78
2022/04/16 04:10:06;;;;;;;26.50;21.33;;;7.60;99.90;;;;;;5103078;28;20084;-77
2022/04/16 04:12:35;;;;;;;25.83;21.73;;;7.70;99.90;;;;;;5081471;28;20127;-77
2022/04/16 04:15:02;;;;;;;27.83;22.00;;;7.70;99.90;;;;;;5080550;28;20074;-79
2022/04/16 04:17:54;;;;;;;27.13;22.08;;;7.70;99.90;;;;;;5116520;28;20043;-77
2022/04/16 04:20:26;;;;;;;29.15;23.65;;;7.80;99.90;;;;;;5096722;28;20116;-77
2022/04/16 04:22:55;;;;;;;28.17;23.60;;;7.80;99.90;;;;;;5080809;28;20058;-77
2022/04/16 04:25:22;;;;;;;28.25;24.45;;;7.90;99.90;;;;;;5114872;28;20043;-77
2022/04/16 04:27:55;;;;;;;34.03;25.45;;;7.90;99.90;;;;;;5132957;28;20494;-77
2022/04/16 04:30:22;;;;;;;32.20;26.17;;;7.90;99.90;;;;;;5082235;28;20314;-77
2022/04/16 04:33:04;;;;;;;30.27;24.83;;;7.90;99.90;;;;;;5097241;28;20551;-83
2022/04/16 04:35:30;;;;;;;32.63;26.48;;;8.00;99.90;;;;;;5064277;28;20066;-78
2022/04/16 04:37:58;;;;;;;33.05;25.98;;;8.00;99.90;;;;;;5080115;28;20551;-77
2022/04/16 04:40:42;;;;;;;32.95;26.02;;;8.10;99.90;;;;;;5100889;28;20096;-77
2022/04/16 04:43:14;;;;;;;31.95;26.65;;;8.10;99.90;;;;;;5131814;28;20058;-77
2022/04/16 04:45:40;;;;;;;33.72;27.25;;;8.10;99.90;;;;;;5080707;28;20090;-77
2022/04/16 04:48:07;;;;;;;32.88;27.23;;;8.10;99.90;;;;;;5097625;28;20043;-77
2022/04/16 04:50:44;;;;;;;34.20;27.02;;;8.10;99.90;;;;;;5098352;28;20047;-77
2022/04/16 04:53:18;;;;;;;32.90;27.90;;;8.10;99.90;;;;;;5132146;28;20073;-77
2022/04/16 04:55:50;;;;;;;33.50;28.08;;;8.10;99.90;;;;;;5082775;28;20485;-78
2022/04/16 04:58:16;;;;;;;32.28;27.95;;;8.20;99.90;;;;;;5113578;28;20053;-77
2022/04/16 05:00:43;;;;;;;34.10;28.08;;;8.20;99.90;;;;;;5081148;28;20580;-77
2022/04/16 05:03:10;;;;;;;32.17;27.88;;;8.20;99.90;;;;;;5096217;28;20043;-77
2022/04/16 05:05:36;;;;;;;34.63;28.65;;;8.20;99.90;;;;;;5098066;28;20127;-78
2022/04/16 05:08:02;;;;;;;37.22;29.48;;;8.20;99.90;;;;;;5097627;28;20068;-78
2022/04/16 05:10:28;;;;;;;35.03;28.70;;;8.20;99.90;;;;;;5063879;27;20433;-78
2022/04/16 05:12:57;;;;;;;33.65;28.23;;;8.30;99.90;;;;;;5100522;27;20415;-78
2022/04/16 05:15:23;;;;;;;36.80;28.73;;;8.40;99.90;;;;;;5117556;27;20039;-78
2022/04/16 05:17:48;;;;;;;32.55;27.13;;;8.30;99.90;;;;;;5118065;27;20039;-78
2022/04/16 05:20:16;;;;;;;33.65;27.85;;;8.30;99.90;;;;;;5100767;27;20099;-78
2022/04/16 05:22:41;;;;;;;30.48;26.05;;;8.30;99.90;;;;;;5101063;27;20051;-78
2022/04/16 05:25:08;;;;;;;30.55;25.23;;;8.30;99.90;;;;;;5116976;27;20449;-79
2022/04/16 05:27:37;;;;;;;27.95;23.08;;;8.30;99.90;;;;;;5083758;27;20039;-78
2022/04/16 05:30:06;;;;;;;26.05;21.85;;;8.30;99.90;;;;;;5084945;27;20096;-82
2022/04/16 05:32:40;;;;;;;24.90;20.43;;;8.30;99.90;;;;;;5082239;27;20146;-78
2022/04/16 05:35:07;;;;;;;23.85;19.35;;;8.30;99.90;;;;;;5101396;27;20039;-77
2022/04/16 05:37:33;;;;;;;25.02;18.83;;;8.30;99.90;;;;;;5083613;27;20039;-78
2022/04/16 05:40:07;;;;;;;22.20;18.08;;;8.30;99.90;;;;;;5101039;27;20097;-77
2022/04/16 05:42:41;;;;;;;23.75;17.63;;;8.30;99.90;;;;;;5084920;27;20087;-78
2022/04/16 05:45:09;;;;;;;22.15;16.70;;;8.30;99.90;;;;;;5118492;27;20395;-78
2022/04/16 05:47:35;;;;;;;22.92;16.27;;;8.30;99.90;;;;;;5100586;27;20391;-78
2022/04/16 05:50:12;;;;;;;21.83;16.73;;;8.30;99.90;;;;;;5118710;27;20043;-78
2022/04/16 05:52:38;;;;;;;19.25;16.02;;;8.30;99.90;;;;;;5100859;27;20043;-77
2022/04/16 05:55:04;;;;;;;22.13;15.75;;;8.30;99.90;;;;;;5095902;28;20560;-78
2022/04/16 05:57:31;;;;;;;19.77;14.85;;;8.30;99.90;;;;;;5113446;28;20122;-78
2022/04/16 06:00:04;;;;;;;20.88;15.10;;;8.30;99.90;;;;;;5097252;28;20135;-79
2022/04/16 06:02:31;;;;;;;20.33;16.10;;;8.40;99.90;;;;;;5096893;28;20116;-78
2022/04/16 06:05:00;;;;;;;19.63;14.77;;;8.40;99.90;;;;;;5095268;28;20052;-77
2022/04/16 06:07:31;;;;;;;19.42;14.95;;;8.40;99.90;;;;;;5082156;28;20447;-78
2022/04/16 06:10:04;;;;;;;20.67;15.23;;;8.50;99.90;;;;;;5065930;28;20058;-78
2022/04/16 06:12:33;;;;;;;20.52;14.98;;;8.50;99.90;;;;;;5113481;28;20040;-78
2022/04/16 06:15:00;;;;;;;17.33;13.20;;;8.50;99.90;;;;;;5079870;28;20131;-77
2022/04/16 06:17:26;;;;;;;17.80;13.50;;;8.50;99.90;;;;;;5113242;28;20118;-78
2022/04/16 06:19:51;;;;;;;20.42;13.57;;;8.50;99.90;;;;;;5113663;28;20106;-78
2022/04/16 06:22:18;;;;;;;16.90;12.95;;;8.50;99.90;;;;;;5112949;28;20126;-84
2022/04/16 06:24:48;;;;;;;17.42;13.25;;;8.50;99.90;;;;;;5096802;28;20081;-78
2022/04/16 06:27:31;;;;;;;17.90;12.82;;;8.50;99.90;;;;;;5078238;28;20057;-81
2022/04/16 06:30:02;;;;;;;17.95;13.02;;;8.70;99.90;;;;;;5096365;28;20047;-77
2022/04/16 06:32:37;;;;;;;16.45;12.93;;;8.60;99.90;;;;;;5113012;28;20051;-77
2022/04/16 06:35:16;;;;;;;17.25;12.95;;;8.60;99.90;;;;;;5113413;28;20086;-77
2022/04/16 06:37:50;;;;;;;16.27;12.50;;;8.60;99.90;;;;;;5114393;28;20046;-76
2022/04/16 06:40:16;;;;;;;16.08;12.82;;;8.70;99.90;;;;;;5096400;28;20126;-77
2022/04/16 06:43:04;;;;;;;16.52;12.63;;;8.70;99.90;;;;;;5113079;28;20039;-77
2022/04/16 06:45:48;;;;;;;16.67;12.40;;;8.80;99.90;;;;;;5113109;28;20066;-76
2022/04/16 06:48:27;;;;;;;16.20;12.60;;;8.80;99.90;;;;;;5083677;28;20100;-78
2022/04/16 06:51:00;;;;;;;17.35;12.23;;;8.80;99.90;;;;;;5079162;28;20097;-77
2022/04/16 06:53:36;;;;;;;15.60;11.35;;;8.90;99.90;;;;;;5112960;27;20071;-77
2022/04/16 06:56:13;;;;;;;16.40;12.50;;;9.00;99.90;;;;;;5100258;27;20058;-76
2022/04/16 06:58:58;;;;;;;14.70;11.95;;;9.00;99.90;;;;;;5098702;27;20086;-76
2022/04/16 07:04:18;;;;;;;14.50;11.25;;;9.10;99.90;;;;;;5101482;27;20058;-76
2022/04/16 07:06:49;;;;;;;126.07;18.13;;;9.20;99.90;;;;;;5082317;27;20055;-77
2022/04/16 07:09:31;;;;;;;14.95;11.32;;;9.20;99.90;;;;;;5127046;27;20107;-77
2022/04/16 07:12:05;;;;;;;16.95;12.68;;;9.10;99.90;;;;;;5039224;28;20052;-79
2022/04/16 07:14:53;;;;;;;14.68;11.38;;;9.20;99.90;;;;;;5068600;28;20428;-77
2022/04/16 07:17:23;;;;;;;14.73;11.40;;;9.20;99.90;;;;;;5063507;28;20475;-76
2022/04/16 07:19:54;;;;;;;16.67;11.60;;;9.30;99.90;;;;;;5052166;28;20516;-76
2022/04/16 07:22:34;;;;;;;17.63;11.93;;;9.30;99.90;;;;;;5068384;28;20079;-78
2022/04/16 07:25:06;;;;;;;14.88;11.20;;;9.40;99.90;;;;;;5070837;28;20055;-77
2022/04/16 07:27:43;;;;;;;13.35;10.85;;;9.40;99.90;;;;;;5070003;28;20046;-78
2022/04/16 07:30:19;;;;;;;15.65;11.52;;;9.50;99.90;;;;;;5054049;28;20044;-77
2022/04/16 07:33:16;;;;;;;14.23;10.60;;;9.60;99.90;;;;;;5057235;28;20056;-77
2022/04/16 07:38:50;;;;;;;13.48;9.90;;;9.70;99.90;;;;;;5053108;28;20048;-78
2022/04/16 07:41:29;;;;;;;12.55;9.70;;;9.80;99.90;;;;;;5051787;28;20095;-78
2022/04/16 07:44:36;;;;;;;14.52;10.02;;;9.90;99.90;;;;;;5056631;28;20109;-77
2022/04/16 07:47:18;;;;;;;12.77;9.25;;;10.00;99.90;;;;;;5069640;28;20049;-77
2022/04/16 07:49:45;;;;;;;12.45;9.75;;;10.10;99.90;;;;;;5019771;28;20052;-78
2022/04/16 07:52:30;;;;;;;12.52;9.10;;;10.10;99.90;;;;;;5053035;28;20064;-78
2022/04/16 07:54:58;;;;;;;11.90;9.00;;;10.20;99.90;;;;;;5052022;28;20064;-79
2022/04/16 07:57:25;;;;;;;12.73;9.05;;;10.20;99.90;;;;;;5020510;28;20052;-78
2022/04/16 07:59:56;;;;;;;9.93;7.77;;;10.30;99.90;;;;;;5021098;28;20152;-79
2022/04/16 08:02:26;;;;;;;10.57;8.63;;;10.30;99.90;;;;;;5036014;28;20820;-78
2022/04/16 08:05:00;;;;;;;10.77;8.38;;;10.30;99.90;;;;;;5019767;28;20088;-79
2022/04/16 08:07:42;;;;;;;12.02;8.52;;;10.30;99.90;;;;;;5019763;28;20067;-78
2022/04/16 08:10:10;;;;;;;12.23;8.13;;;10.30;99.90;;;;;;5036460;28;20500;-78
2022/04/16 08:12:40;;;;;;;9.73;7.90;;;10.30;99.90;;;;;;5052435;28;20052;-78
2022/04/16 08:15:26;;;;;;;10.18;7.63;;;10.30;99.90;;;;;;5020271;28;20119;-78
2022/04/16 08:18:17;;;;;;;8.93;7.00;;;10.30;99.70;;;;;;5058102;28;20049;-78
2022/04/16 08:20:43;;;;;;;9.57;6.95;;;10.30;99.90;;;;;;5025055;28;20057;-80
2022/04/16 08:23:17;;;;;;;8.90;6.43;;;10.30;99.50;;;;;;5097632;28;20089;-81
2022/04/16 08:28:45;;;;;;;8.63;6.07;;;10.40;97.90;;;;;;5086955;28;20051;-78
2022/04/16 08:31:20;;;;;;;8.30;5.75;;;10.30;98.00;;;;;;5116131;28;20073;-80
2022/04/16 08:34:01;;;;;;;7.95;5.45;;;10.30;97.80;;;;;;5096142;28;20089;-77
2022/04/16 08:36:34;;;;;;;6.72;4.90;;;10.30;97.10;;;;;;5115158;28;20046;-79
2022/04/16 08:39:22;;;;;;;7.85;5.18;;;10.30;96.20;;;;;;5113130;28;20055;-77
2022/04/16 08:42:26;;;;;;;5.80;4.03;;;10.30;96.50;;;;;;5105144;28;20043;-78
2022/04/16 08:45:18;;;;;;;7.05;3.58;;;10.30;93.90;;;;;;5115880;27;20047;-78
2022/04/16 08:47:57;;;;;;;5.28;3.65;;;10.30;95.60;;;;;;5111885;27;20054;-78
2022/04/16 08:50:44;;;;;;;6.55;4.05;;;10.30;94.00;;;;;;5088127;27;20101;-78
2022/04/16 08:54:05;;;;;;;4.60;3.67;;;10.30;93.80;;;;;;5103176;27;20522;-78
2022/04/16 08:57:11;;;;;;;5.00;3.80;;;10.30;93.00;;;;;;5090563;28;20082;-78
2022/04/16 09:00:26;;;;;;;5.57;3.67;;;10.20;92.80;;;;;;5081965;28;20046;-78
2022/04/16 09:03:09;;;;;;;5.70;4.30;;;10.20;92.50;;;;;;5068136;28;20062;-78
2022/04/16 09:05:58;;;;;;;5.68;3.30;;;10.20;93.20;;;;;;5031021;28;20114;-78
2022/04/16 09:08:33;;;;;;;;;;;10.20;91.60;;;;;;5012440;28;20052;-78
2022/04/16 09:12:22;;;;;;;5.47;3.90;;;10.20;86.20;;;;;;4992071;28;20259;-78
2022/04/16 09:15:50;;;;;;;7.22;4.00;;;10.30;91.80;;;;;;4993836;28;20126;-78
2022/04/16 09:18:46;;;;;;;4.50;3.50;;;10.30;91.50;;;;;;5036199;28;20057;-78
2022/04/16 09:22:13;;;;;;;5.63;3.78;;;10.30;91.30;;;;;;5027465;28;20524;-78
2022/04/16 09:25:16;;;;;;;6.88;3.97;;;10.40;91.50;;;;;;4992962;28;20054;-78
2022/04/16 09:31:53;;;;;;;;;;;10.50;90.80;;;;;;5013221;28;20521;-79
2022/04/16 09:34:55;;;;;;;3.33;2.28;;;10.50;87.40;;;;;;4979816;28;20016;-78
2022/04/16 09:38:16;;;;;;;4.50;2.35;;;10.60;82.10;;;;;;4981038;28;20112;-78
2022/04/16 09:41:19;;;;;;;4.28;2.10;;;10.70;86.30;;;;;;4952591;28;20090;-78
2022/04/16 09:44:47;;;;;;;2.70;2.10;;;10.70;80.60;;;;;;4992877;28;20268;-78
2022/04/16 09:47:34;;;;;;;2.75;2.20;;;10.80;74.00;;;;;;4990083;28;20411;-78
2022/04/16 09:50:38;;;;;;;4.35;2.63;;;10.80;83.40;;;;;;5035343;28;20103;-78
2022/04/16 09:53:48;;;;;;;4.63;3.10;;;10.90;78.00;;;;;;5021476;28;20093;-78
2022/04/16 09:56:49;;;;;;;3.30;2.40;;;11.00;81.90;;;;;;5038616;28;20182;-79
2022/04/16 10:00:04;;;;;;;5.05;2.80;;;11.00;79.40;;;;;;5051007;28;20056;-78
2022/04/16 10:03:00;;;;;;;5.47;3.13;;;11.10;74.90;;;;;;5049559;28;20052;-78
2022/04/16 10:05:47;;;;;;;3.67;2.67;;;11.10;79.30;;;;;;5041561;28;20056;-78
2022/04/16 10:09:23;;;;;;;2.95;2.15;;;11.20;79.00;;;;;;5041096;28;20060;-80
2022/04/16 10:15:19;;;;;;;3.22;2.40;;;11.30;76.30;;;;;;5052868;28;20040;-79
2022/04/16 10:18:01;;;;;;;3.10;2.10;;;11.40;74.90;;;;;;5054974;28;20455;-78
2022/04/16 10:21:02;;;;;;;3.15;2.00;;;11.40;75.50;;;;;;5059176;28;20481;-79
2022/04/16 10:23:48;;;;;;;2.45;2.00;;;11.50;73.20;;;;;;5082812;28;20057;-78
2022/04/16 10:26:21;;;;;;;3.53;2.20;;;11.50;75.30;;;;;;5078730;28;20090;-79
2022/04/16 10:29:08;;;;;;;3.47;2.47;;;11.50;72.90;;;;;;5113060;28;20529;-79
2022/04/16 10:31:50;;;;;;;3.15;2.30;;;11.60;72.50;;;;;;5103482;28;20051;-78
2022/04/16 10:34:39;;;;;;;4.05;2.20;;;11.60;69.80;;;;;;5085226;28;20043;-79
2022/04/16 10:37:27;;;;;;;4.50;2.60;;;11.70;71.60;;;;;;5079588;28;20097;-79
2022/04/16 10:40:02;;;;;;;3.10;2.03;;;11.70;69.80;;;;;;5079287;28;20417;-80
2022/04/16 10:42:35;;;;;;;4.07;1.83;;;11.70;70.00;;;;;;5063482;28;20064;-79
2022/04/16 10:45:11;;;;;;;2.20;1.70;;;11.80;68.20;;;;;;5077047;28;20055;-79
2022/04/16 10:47:38;;;;;;;4.35;1.73;;;11.80;65.70;;;;;;5096212;28;20065;-79
2022/04/16 10:51:00;;;;;;;2.15;1.30;;;11.90;65.20;;;;;;5079567;28;20130;-79
2022/04/16 10:53:36;;;;;;;3.17;1.33;;;12.00;56.70;;;;;;5112365;28;20097;-79
2022/04/16 10:56:47;;;;;;;2.47;1.30;;;12.00;63.20;;;;;;5098659;28;20062;-79
2022/04/16 11:00:01;;;;;;;3.97;1.50;;;12.00;62.00;;;;;;5100734;28;20085;-79
2022/04/16 11:02:42;;;;;;;1.90;1.40;;;12.10;58.70;;;;;;5112968;28;20096;-79
2022/04/16 11:05:21;;;;;;;1.33;1.10;;;12.20;58.80;;;;;;5082222;28;20061;-79
2022/04/16 11:07:59;;;;;;;1.60;1.10;;;12.30;58.30;;;;;;5111382;28;20089;-79
2022/04/16 11:10:41;;;;;;;1.80;0.95;;;12.30;58.10;;;;;;5112317;28;20055;-80
2022/04/16 11:13:19;;;;;;;1.73;1.08;;;12.40;56.70;;;;;;5056525;28;20135;-79
2022/04/16 11:15:56;;;;;;;4.18;0.90;;;12.40;55.00;;;;;;5092867;28;20086;-79
2022/04/16 11:18:53;;;;;;;0.80;0.70;;;12.40;54.20;;;;;;5110305;28;20058;-79
2022/04/16 11:21:40;;;;;;;2.92;0.80;;;12.60;52.40;;;;;;5097832;28;20453;-79
2022/04/16 11:24:28;;;;;;;2.75;0.82;;;12.50;52.90;;;;;;5096839;28;20118;-79
2022/04/16 11:36:15;;;;;;;0.95;0.45;;;12.60;52.20;;;;;;5096318;28;20417;-79
2022/04/16 11:38:53;;;;;;;1.33;0.55;;;12.70;50.80;;;;;;5079747;28;20399;-79
2022/04/16 11:41:39;;;;;;;2.42;0.50;;;12.80;49.10;;;;;;5113260;28;20058;-79
2022/04/16 11:44:50;;;;;;;0.40;0.40;;;12.80;47.50;;;;;;5111678;28;20180;-79
2022/04/16 11:47:32;;;;;;;;;;;12.90;46.80;;;;;;5112354;28;20458;-80
2022/04/16 11:50:08;;;;;;;0.82;0.50;;;12.80;45.10;;;;;;5111914;28;19919;-84
2022/04/16 11:52:51;;;;;;;1.48;0.57;;;12.90;49.60;;;;;;5109847;28;20094;-79
2022/04/16 11:55:23;;;;;;;1.52;0.40;;;13.00;48.90;;;;;;5062620;28;20058;-79
2022/04/16 11:58:05;;;;;;;1.25;0.70;;;13.00;47.00;;;;;;5096451;28;20047;-79
2022/04/16 12:01:06;;;;;;;2.22;0.60;;;13.10;47.20;;;;;;5078641;28;20146;-79
2022/04/16 12:04:04;;;;;;;1.48;0.63;;;13.10;46.50;;;;;;5112709;28;20056;-79
2022/04/16 12:06:53;;;;;;;1.13;0.60;;;13.10;47.20;;;;;;5112307;28;20055;-79
2022/04/16 12:09:54;;;;;;;2.38;0.70;;;13.20;46.90;;;;;;5094936;28;20058;-80
2022/04/16 12:12:24;;;;;;;1.55;0.77;;;13.10;47.90;;;;;;5112849;28;20071;-79
2022/04/16 12:15:26;;;;;;;1.90;0.70;;;13.10;48.80;;;;;;5099627;28;20078;-81
2022/04/16 12:18:15;;;;;;;1.50;0.75;;;13.20;47.90;;;;;;5109977;28;20059;-80
2022/04/16 12:20:57;;;;;;;1.05;0.60;;;13.20;47.40;;;;;;5106928;28;20058;-80
2022/04/16 12:23:29;;;;;;;1.00;0.80;;;13.20;47.40;;;;;;5065391;28;20048;-80
2022/04/16 12:26:23;;;;;;;1.27;0.60;;;13.20;48.20;;;;;;5087534;28;20122;-81
2022/04/16 12:29:08;;;;;;;2.47;0.80;;;13.30;48.80;;;;;;5113033;28;20062;-78
2022/04/16 12:31:37;;;;;;;1.85;0.75;;;13.30;48.70;;;;;;5099002;28;20044;-79
2022/04/16 12:37:07;;;;;;;1.98;0.70;;;13.40;46.20;;;;;;5114890;28;20051;-84
2022/04/16 12:39:54;;;;;;;;;;;13.50;47.30;;;;;;5065054;28;20512;-80
2022/04/16 12:42:27;;;;;;;3.20;0.80;;;13.40;44.60;;;;;;5076444;28;19966;-80
2022/04/16 12:45:22;;;;;;;0.65;0.60;;;13.40;47.30;;;;;;5092327;28;20515;-82
2022/04/16 12:47:53;;;;;;;0.93;0.70;;;13.50;47.30;;;;;;5077139;28;20116;-80
2022/04/16 12:50:40;;;;;;;1.67;0.63;;;13.50;46.40;;;;;;5079600;28;20043;-79
2022/04/16 12:53:36;;;;;;;1.02;0.70;;;13.50;46.00;;;;;;5045140;28;20054;-81
2022/04/16 12:56:56;;;;;;;0.93;0.63;;;13.60;46.20;;;;;;5090236;28;20052;-80
2022/04/16 12:59:35;;;;;;;1.10;0.85;;;13.70;47.70;;;;;;5093071;28;20540;-81
2022/04/16 13:02:26;;;;;;;1.00;0.80;;;13.70;47.20;;;;;;5034839;28;20051;-82
2022/04/16 13:05:02;;;;;;;1.65;0.90;;;13.80;47.40;;;;;;5061787;28;20049;-81
2022/04/16 13:07:33;;;;;;;2.25;0.90;;;13.80;47.40;;;;;;5078764;28;20121;-81
2022/04/16 13:10:28;;;;;;;1.77;0.90;;;13.90;47.30;;;;;;5061443;28;20064;-77
2022/04/16 13:13:01;;;;;;;1.17;0.70;;;13.90;46.80;;;;;;5096944;28;20523;-78
2022/04/16 13:18:25;;;;;;;3.72;1.10;;;14.00;47.20;;;;;;5077623;28;20044;-81
2022/04/16 13:20:58;;;;;;;1.10;0.77;;;14.00;46.00;;;;;;5078550;28;20190;-79
2022/04/16 13:23:25;;;;;;;2.45;0.90;;;14.00;46.70;;;;;;5077072;28;20055;-80
2022/04/16 13:26:08;;;;;;;6.35;0.93;;;14.00;46.10;;;;;;5094367;28;20445;-79
2022/04/16 13:28:42;;;;;;;1.25;0.70;;;14.00;44.00;;;;;;5090079;28;20110;-81
2022/04/16 13:31:15;;;;;;;2.42;0.88;;;14.00;46.50;;;;;;5094258;28;20098;-79
2022/04/16 13:33:47;;;;;;;2.75;0.70;;;14.10;46.40;;;;;;5076783;28;20452;-80
2022/04/16 13:36:18;;;;;;;1.73;1.00;;;14.10;46.20;;;;;;5063579;28;20051;-83
2022/04/16 13:38:55;;;;;;;1.50;0.80;;;14.20;45.40;;;;;;5096252;28;20059;-81
2022/04/16 13:42:05;;;;;;;1.20;0.77;;;14.20;46.20;;;;;;5080253;28;20507;-80
2022/04/16 13:44:48;;;;;;;1.48;0.73;;;14.30;47.00;;;;;;5093259;28;20075;-81
2022/04/16 13:47:19;;;;;;;3.13;1.10;;;14.40;44.80;;;;;;5092612;28;20446;-81
2022/04/16 13:49:47;;;;;;;1.52;0.70;;;14.30;46.60;;;;;;5092993;28;20579;-80
2022/04/16 13:52:25;;;;;;;2.03;0.88;;;14.40;44.00;;;;;;5092512;28;20056;-80
2022/04/16 13:54:51;;;;;;;1.83;0.80;;;14.30;44.40;;;;;;5094235;28;20113;-83
2022/04/16 13:57:17;;;;;;;2.35;0.70;;;14.30;44.40;;;;;;5089630;28;20478;-80
2022/04/16 14:00:03;;;;;;;2.05;1.00;;;14.30;43.80;;;;;;5113720;28;20139;-80
2022/04/16 14:02:55;;;;;;;2.22;0.88;;;14.40;45.10;;;;;;5114055;28;20034;-81
2022/04/16 14:08:14;;;;;;;1.48;0.80;;;14.30;45.50;;;;;;5085306;28;20056;-81
2022/04/16 14:10:50;;;;;;;1.05;0.90;;;14.30;45.40;;;;;;5095677;28;20145;-80
2022/04/16 14:13:25;;;;;;;0.90;0.68;;;14.40;45.40;;;;;;5097371;28;20043;-80
2022/04/16 14:18:37;;;;;;;2.42;0.80;;;14.30;45.40;;;;;;5151197;27;20378;-81
2022/04/16 14:21:12;;;;;;;1.50;0.77;;;14.30;44.50;;;;;;5130764;28;20487;-80
2022/04/16 14:23:45;;;;;;;2.22;0.50;;;14.30;44.30;;;;;;5063381;28;20440;-80
2022/04/16 14:26:20;;;;;;;4.55;0.80;;;14.30;43.80;;;;;;5112529;28;20050;-80
2022/04/16 14:28:47;;;;;;;2.35;0.73;;;14.20;44.40;;;;;;5094957;28;20134;-81
2022/04/16 14:31:12;;;;;;;3.28;1.00;;;14.30;44.60;;;;;;5079488;28;20075;-80
2022/04/16 14:33:39;;;;;;;2.05;0.90;;;14.20;43.40;;;;;;5061922;28;20090;-80
2022/04/16 14:36:06;;;;;;;2.85;0.80;;;14.30;43.40;;;;;;5112620;28;20468;-80
2022/04/16 14:38:50;;;;;;;3.88;1.30;;;14.30;43.40;;;;;;5098699;28;20039;-81